Pagrindinis puslapis
METAR-TAF:

METAR-TAF

Oro uostai :

Cairo Regional Airport

Cairo, Ilinojus, Jungtinės Amerikos Valstijos

platuma: 37-03-52N, ilguma: 089-13-10W, Aukštis: 98 m

Dabartinis oras

Ataskaita buvo paskelbta 15 minutes, ne 21:35 UTC
Vėjas 8 kt iš Pietų
Temperatūra 22°C
Drėgmė 88%
Slėgis 1006 hPa
Matomumas: 16.1 km
Išsisklaidę debesys ne aukštis 3300 ft
Su prošvaistėmis ne aukštis 3900 ft
Apsiniaukę ne aukštis 12000 ft

METAR: KCIR 282135Z AUTO 18008KT 10SM SCT033 BKN039 OVC120 22/20 A2970 RMK AO2 T02150195

Laikas: 16:50 (21:50 UTC)


TAF: trūkstamas

Orai ataskaitas ir orų prognozės (METAR, TAF).

turimą stotys yra geltonos ir raudonos taškus žemėlapyje.

Perkelti pele per norėdami pamatyti stoties vardą.

Tada spustelėkite, norėdami matyti oro stebėjimo ir prognozės.

Norėdami pakeisti žemėlapį: spustelėkite ant žalios mygtukų su juodo kryžiaus žemyn,; žalią mygtuką su brūkšneliu, jei norite nutolinti; arba žalių rodyklių gretimoms žemėlapius.


METAR-TAF: